Time;durP1;ratioP1;P1;durP2;ratioP2;P2;SDS_P1;SDS_P2;PMS_P1;PMS_P2;Temp;Humidity;BMP_temperature;BMP_pressure;BME280_temperature;BME280_humidity;BME280_pressure;Samples;Min_cycle;Max_cycle;Signal;HPM_P1;HPM_P2
2020/12/22 00:02:02;;;;;;;11.00;6.53;;;;;;;2.18;81.47;99281.09;4994820;28;20463;-61
2020/12/22 00:04:28;;;;;;;9.47;6.97;;;;;;;2.20;81.16;99275.28;4996782;28;20098;-61
2020/12/22 00:06:57;;;;;;;10.47;6.70;;;;;;;2.27;81.30;99269.53;4994230;28;20030;-61
2020/12/22 00:09:23;;;;;;;11.00;7.07;;;;;;;2.25;81.03;99266.09;4996166;28;20034;-61
2020/12/22 00:11:48;;;;;;;12.03;7.53;;;;;;;2.26;81.16;99266.94;4995161;28;20026;-61
2020/12/22 00:14:14;;;;;;;11.97;7.23;;;;;;;2.29;81.07;99272.09;4995617;28;20113;-61
2020/12/22 00:16:39;;;;;;;13.37;7.40;;;;;;;2.33;80.82;99273.91;4995520;28;20030;-61
2020/12/22 00:19:05;;;;;;;11.23;7.23;;;;;;;2.31;80.42;99278.03;4996111;28;20030;-61
2020/12/22 00:21:32;;;;;;;11.20;7.63;;;;;;;2.35;80.53;99284.88;4994984;28;20058;-61
2020/12/22 00:23:57;;;;;;;11.63;7.53;;;;;;;2.30;81.05;99283.91;4996322;28;20047;-61
2020/12/22 00:26:23;;;;;;;13.23;8.20;;;;;;;2.33;80.88;99280.63;4994292;28;20018;-61
2020/12/22 00:28:48;;;;;;;12.70;7.70;;;;;;;2.27;81.09;99278.78;4996616;28;20165;-60
2020/12/22 00:31:14;;;;;;;11.80;6.97;;;;;;;2.29;81.38;99275.47;4995272;28;20060;-60
2020/12/22 00:33:39;;;;;;;12.43;7.70;;;;;;;2.33;81.27;99275.56;4995459;28;20098;-61
2020/12/22 00:36:08;;;;;;;12.93;7.27;;;;;;;2.43;80.73;99270.75;4995422;28;20519;-61
2020/12/22 00:38:34;;;;;;;12.10;7.23;;;;;;;2.38;80.59;99268.94;4992403;28;20358;-61
2020/12/22 00:40:59;;;;;;;15.03;8.07;;;;;;;2.36;80.78;99273.09;4995173;28;20023;-61
2020/12/22 00:43:24;;;;;;;12.40;6.70;;;;;;;2.29;81.45;99269.59;4994140;28;20304;-61
2020/12/22 00:45:50;;;;;;;12.40;7.50;;;;;;;2.21;81.14;99266.84;4985436;28;20109;-62
2020/12/22 00:48:15;;;;;;;13.40;8.23;;;;;;;2.22;81.49;99275.28;4993163;28;20038;-61
2020/12/22 00:50:41;;;;;;;12.17;7.57;;;;;;;2.23;81.41;99282.06;4993944;28;20106;-61
2020/12/22 00:53:06;;;;;;;13.47;8.37;;;;;;;2.23;81.21;99279.53;4993106;28;20022;-61
2020/12/22 00:55:31;;;;;;;12.80;7.70;;;;;;;2.27;81.14;99278.78;4993417;28;20089;-62
2020/12/22 00:57:57;;;;;;;11.70;8.23;;;;;;;2.22;81.50;99266.03;4994290;28;20073;-62
2020/12/22 01:00:22;;;;;;;13.17;7.43;;;;;;;2.22;81.76;99258.44;4996001;28;20596;-62
2020/12/22 01:02:48;;;;;;;12.47;7.70;;;;;;;2.17;81.96;99260.00;4993443;28;20040;-62
2020/12/22 01:05:13;;;;;;;11.20;7.60;;;;;;;2.13;81.66;99260.75;4959773;28;20106;-62
2020/12/22 01:07:38;;;;;;;13.93;8.70;;;;;;;2.14;82.06;99266.66;4993124;28;20659;-62
2020/12/22 01:10:04;;;;;;;13.97;8.97;;;;;;;2.12;82.10;99269.13;4994921;28;20041;-61
2020/12/22 01:12:30;;;;;;;14.13;8.57;;;;;;;2.10;81.64;99275.84;4995087;28;20076;-61
2020/12/22 01:14:55;;;;;;;19.77;9.27;;;;;;;2.07;81.76;99285.03;4995062;28;20106;-61
2020/12/22 01:17:21;;;;;;;15.00;8.80;;;;;;;2.14;81.40;99286.91;4994303;28;20030;-64
2020/12/22 01:19:46;;;;;;;15.80;8.30;;;;;;;2.12;81.45;99291.06;4995269;28;20031;-61
2020/12/22 01:22:12;;;;;;;10.37;7.17;;;;;;;2.15;80.41;99293.66;4994308;28;20050;-61
2020/12/22 01:24:38;;;;;;;13.83;8.50;;;;;;;2.16;80.57;99286.13;4995359;28;20026;-61
2020/12/22 01:27:03;;;;;;;12.93;7.57;;;;;;;2.23;80.28;99289.66;4984275;28;20027;-61
2020/12/22 01:29:29;;;;;;;11.70;7.50;;;;;;;2.21;80.00;99294.66;4975552;28;20452;-61
2020/12/22 01:31:54;;;;;;;13.77;8.13;;;;;;;2.30;80.30;99294.88;4982263;28;20105;-62
2020/12/22 01:34:20;;;;;;;14.07;8.27;;;;;;;2.30;80.40;99288.97;4995136;28;20451;-61
2020/12/22 01:36:45;;;;;;;11.17;7.53;;;;;;;2.30;80.58;99281.38;4994230;28;20098;-62
2020/12/22 01:39:11;;;;;;;11.57;7.57;;;;;;;2.31;80.47;99280.56;4995119;28;20019;-61
2020/12/22 01:41:37;;;;;;;11.33;8.10;;;;;;;2.38;80.52;99284.13;4992704;28;20047;-62
2020/12/22 01:44:09;;;;;;;12.50;7.63;;;;;;;2.36;80.46;99283.22;4995057;28;20102;-62
2020/12/22 01:46:38;;;;;;;12.40;7.70;;;;;;;2.37;80.57;99280.72;4993643;28;20022;-62
2020/12/22 01:49:08;;;;;;;12.50;7.60;;;;;;;2.41;80.54;99282.53;4995160;28;20026;-61
2020/12/22 01:51:34;;;;;;;11.87;7.17;;;;;;;2.36;80.18;99281.53;4976326;28;20344;-61
2020/12/22 01:54:00;;;;;;;12.03;7.33;;;;;;;2.38;80.61;99281.59;4995229;28;20396;-62
2020/12/22 01:56:27;;;;;;;14.13;8.90;;;;;;;2.39;80.26;99270.63;4993388;28;20045;-62
2020/12/22 01:58:52;;;;;;;12.20;7.37;;;;;;;2.36;80.30;99265.50;4995537;28;20026;-62
2020/12/22 02:01:18;;;;;;;12.50;7.60;;;;;;;2.38;80.46;99277.38;4984377;28;20150;-62
2020/12/22 02:03:44;;;;;;;14.63;8.53;;;;;;;2.42;80.15;99278.31;4957801;28;20027;-61
2020/12/22 02:06:10;;;;;;;13.57;7.67;;;;;;;2.36;79.93;99268.91;4981617;28;20421;-61
2020/12/22 02:08:35;;;;;;;11.67;7.80;;;;;;;2.31;80.58;99255.28;4994429;28;20166;-61
2020/12/22 02:11:00;;;;;;;12.30;7.37;;;;;;;2.30;80.84;99254.41;4993704;28;20467;-61
2020/12/22 02:13:26;;;;;;;10.27;7.23;;;;;;;2.34;80.73;99251.94;4994269;28;20073;-60
2020/12/22 02:15:51;;;;;;;14.60;8.00;;;;;;;2.35;80.30;99244.41;4989924;28;20031;-60
2020/12/22 02:18:17;;;;;;;12.13;7.90;;;;;;;2.39;79.60;99238.59;4975270;28;20408;-60
2020/12/22 02:20:43;;;;;;;12.87;8.07;;;;;;;2.40;80.40;99239.47;4986310;28;20594;-60
2020/12/22 02:23:11;;;;;;;15.40;8.40;;;;;;;2.45;80.18;99232.84;4994959;28;20041;-60
2020/12/22 02:25:45;;;;;;;13.57;8.90;;;;;;;2.46;79.86;99224.44;4993666;28;20455;-61
2020/12/22 02:28:10;;;;;;;13.77;8.27;;;;;;;2.39;80.19;99222.56;4975952;28;20041;-60
2020/12/22 02:30:35;;;;;;;12.00;7.77;;;;;;;2.34;80.79;99217.38;4974165;28;20038;-60
2020/12/22 02:33:01;;;;;;;12.43;7.70;;;;;;;2.38;80.80;99209.06;4974698;28;20035;-60
2020/12/22 02:35:26;;;;;;;11.23;7.97;;;;;;;2.34;80.59;99211.47;4974235;28;20089;-61
2020/12/22 02:37:52;;;;;;;11.67;7.87;;;;;;;2.29;81.04;99199.56;4976518;28;20056;-61
2020/12/22 02:40:17;;;;;;;11.60;7.23;;;;;;;2.26;81.25;99201.19;4988734;28;20042;-60
2020/12/22 02:42:42;;;;;;;12.00;7.13;;;;;;;2.22;81.03;99190.16;4989735;28;20419;-61
2020/12/22 02:45:08;;;;;;;15.57;8.37;;;;;;;2.14;81.45;99196.72;4991611;28;20455;-60
2020/12/22 02:47:33;;;;;;;16.03;8.60;;;;;;;2.04;81.83;99202.34;4988317;28;20030;-60
2020/12/22 02:49:59;;;;;;;13.13;8.53;;;;;;;1.95;81.64;99197.09;4991821;28;20108;-61
2020/12/22 02:52:24;;;;;;;15.30;9.17;;;;;;;1.96;81.56;99198.78;4998375;28;20030;-59
2020/12/22 02:54:49;;;;;;;14.43;8.53;;;;;;;1.94;82.14;99209.69;4995058;28;20034;-59
2020/12/22 02:57:15;;;;;;;15.80;8.47;;;;;;;1.96;81.87;99208.03;4979063;28;20432;-60
2020/12/22 02:59:40;;;;;;;14.70;8.63;;;;;;;2.00;81.68;99205.63;4977612;28;20031;-60
2020/12/22 03:02:05;;;;;;;15.83;9.73;;;;;;;2.00;81.28;99205.63;4978944;28;20416;-60
2020/12/22 03:04:31;;;;;;;15.60;10.13;;;;;;;1.99;81.21;99213.19;4977813;28;20031;-60
2020/12/22 03:06:56;;;;;;;14.33;8.17;;;;;;;2.08;81.24;99203.31;4995748;28;20034;-60
2020/12/22 03:09:22;;;;;;;13.67;8.17;;;;;;;1.95;82.01;99202.16;4997134;28;20026;-60
2020/12/22 03:11:47;;;;;;;13.93;9.17;;;;;;;1.96;81.11;99196.25;4996733;28;20141;-60
2020/12/22 03:14:12;;;;;;;15.47;9.70;;;;;;;2.01;81.35;99198.91;4997180;28;20037;-60
2020/12/22 03:16:38;;;;;;;13.77;9.03;;;;;;;2.04;81.52;99206.56;4996598;28;20026;-60
2020/12/22 03:19:03;;;;;;;14.03;8.67;;;;;;;2.02;81.27;99208.22;4997407;28;20041;-60
2020/12/22 03:21:28;;;;;;;15.27;8.47;;;;;;;1.98;81.09;99219.06;4996497;28;20193;-60
2020/12/22 03:23:54;;;;;;;16.13;8.70;;;;;;;1.96;81.98;99215.63;4997309;28;20026;-60
2020/12/22 03:26:19;;;;;;;15.43;9.47;;;;;;;1.96;81.50;99208.03;4993973;28;20034;-59
2020/12/22 03:28:45;;;;;;;14.57;8.97;;;;;;;1.94;82.15;99212.22;4978010;28;20460;-60
2020/12/22 03:31:10;;;;;;;18.27;9.30;;;;;;;1.91;81.64;99202.88;4976594;28;20449;-60
2020/12/22 03:33:35;;;;;;;14.70;8.60;;;;;;;1.83;82.50;99207.75;4984346;28;20039;-60
2020/12/22 03:36:01;;;;;;;14.73;8.80;;;;;;;1.96;82.42;99188.69;4977704;28;20038;-60
2020/12/22 03:38:26;;;;;;;13.43;8.10;;;;;;;1.99;82.03;99177.81;4985140;28;20030;-60
2020/12/22 03:40:52;;;;;;;14.07;8.57;;;;;;;2.03;81.93;99177.91;4997029;28;20044;-60
2020/12/22 03:43:17;;;;;;;15.60;8.73;;;;;;;2.06;81.87;99183.03;4989189;28;20026;-60
2020/12/22 03:45:44;;;;;;;16.47;8.27;;;;;;;1.91;81.82;99190.22;4977841;28;20065;-59
2020/12/22 03:48:10;;;;;;;14.03;8.67;;;;;;;1.90;81.81;99200.34;4976502;28;20412;-60
2020/12/22 03:50:35;;;;;;;13.63;8.67;;;;;;;1.87;81.99;99200.28;4990091;28;20100;-60
2020/12/22 03:53:01;;;;;;;13.40;8.77;;;;;;;1.99;81.30;99195.50;4994977;28;20133;-61
2020/12/22 03:55:27;;;;;;;14.57;8.40;;;;;;;1.88;82.30;99201.94;4995988;28;20137;-60
2020/12/22 03:57:52;;;;;;;16.07;10.00;;;;;;;1.88;82.36;99202.81;4995416;28;20360;-61
2020/12/22 04:00:19;;;;;;;15.43;9.13;;;;;;;1.84;82.45;99211.13;4997937;28;20026;-60
2020/12/22 04:02:44;;;;;;;14.23;8.77;;;;;;;1.85;82.42;99202.75;4995819;28;20117;-60
2020/12/22 04:05:10;;;;;;;16.30;9.37;;;;;;;1.82;82.59;99208.56;4995981;28;20117;-60
2020/12/22 04:07:36;;;;;;;16.07;9.47;;;;;;;1.88;82.13;99202.81;4996080;28;20113;-60
2020/12/22 04:10:03;;;;;;;15.33;8.83;;;;;;;1.91;82.47;99202.06;4979035;28;20439;-60
2020/12/22 04:12:28;;;;;;;16.20;9.57;;;;;;;1.92;82.62;99204.59;4976285;28;20066;-59
2020/12/22 04:14:54;;;;;;;14.73;8.47;;;;;;;2.00;82.16;99202.25;4976216;28;20066;-62
2020/12/22 04:17:19;;;;;;;16.23;9.00;;;;;;;2.01;81.70;99194.72;4976685;28;20034;-59
2020/12/22 04:19:44;;;;;;;15.57;9.90;;;;;;;1.98;82.37;99194.66;4991647;28;20039;-61
2020/12/22 04:22:10;;;;;;;13.17;9.70;;;;;;;2.03;82.40;99187.16;4977071;28;20094;-61
2020/12/22 04:24:36;;;;;;;20.33;11.03;;;;;;;2.09;81.81;99182.25;4986424;28;20122;-61
2020/12/22 04:27:01;;;;;;;13.83;8.23;;;;;;;2.10;81.52;99178.91;4996349;28;20049;-61
2020/12/22 04:29:26;;;;;;;15.23;9.60;;;;;;;2.09;81.14;99185.63;4987017;28;20045;-61
2020/12/22 04:31:52;;;;;;;13.40;9.27;;;;;;;2.13;81.30;99178.97;4976971;28;20052;-62
2020/12/22 04:34:17;;;;;;;15.37;9.17;;;;;;;2.13;81.53;99173.91;4975793;28;20046;-61
2020/12/22 04:36:42;;;;;;;17.17;9.80;;;;;;;2.12;81.87;99162.09;4976734;28;20041;-61
2020/12/22 04:39:08;;;;;;;14.53;9.40;;;;;;;2.10;81.53;99164.59;4975614;28;20376;-61
2020/12/22 04:41:36;;;;;;;15.70;9.47;;;;;;;2.07;82.05;99169.59;4976892;28;20105;-61
2020/12/22 04:44:02;;;;;;;16.07;8.57;;;;;;;2.00;82.06;99162.66;4977558;28;20400;-61
2020/12/22 04:46:31;;;;;;;16.93;9.53;;;;;;;2.03;81.80;99174.53;4993700;28;20030;-61
2020/12/22 04:48:57;;;;;;;16.50;9.73;;;;;;;2.02;82.24;99170.28;4995452;28;20362;-61
2020/12/22 04:51:24;;;;;;;11.57;8.67;;;;;;;2.04;81.83;99166.09;4995535;28;20133;-59
2020/12/22 04:53:49;;;;;;;14.00;9.17;;;;;;;2.05;81.57;99166.16;4996152;28;20061;-61
2020/12/22 04:56:15;;;;;;;15.07;9.27;;;;;;;2.03;82.03;99166.94;4994600;28;20463;-61
2020/12/22 04:58:41;;;;;;;15.03;9.40;;;;;;;1.97;82.33;99157.53;4991841;28;20117;-61
2020/12/22 05:01:07;;;;;;;15.03;10.03;;;;;;;1.99;82.57;99155.06;4996565;28;20113;-59
2020/12/22 05:03:33;;;;;;;16.67;9.50;;;;;;;1.95;82.75;99155.78;4996454;28;20022;-60
2020/12/22 05:05:58;;;;;;;14.27;10.13;;;;;;;1.94;82.58;99152.41;4994974;28;20101;-60
2020/12/22 05:08:24;;;;;;;17.17;9.87;;;;;;;2.02;82.58;99150.91;4996335;28;20088;-60
2020/12/22 05:10:51;;;;;;;14.60;9.90;;;;;;;2.00;82.76;99156.72;4995676;28;20034;-60
2020/12/22 05:13:17;;;;;;;14.63;8.90;;;;;;;2.03;82.51;99147.56;4978850;28;20046;-60
2020/12/22 05:15:52;;;;;;;17.93;10.50;;;;;;;2.03;82.51;99155.16;4995617;28;20060;-60
2020/12/22 05:18:22;;;;;;;16.40;9.35;;;;;;;2.09;82.61;99155.28;4995967;28;20034;-61
2020/12/22 05:20:49;;;;;;;17.93;11.67;;;;;;;2.03;82.07;99152.63;4977913;28;20046;-61
2020/12/22 05:23:20;;;;;;;19.33;11.93;;;;;;;2.13;82.15;99149.47;4995649;28;20038;-60
2020/12/22 05:25:48;;;;;;;16.43;9.97;;;;;;;2.05;82.70;99153.50;4995717;28;20031;-60
2020/12/22 05:28:16;;;;;;;16.60;12.07;;;;;;;2.05;82.35;99145.91;4996212;28;20034;-60
2020/12/22 05:30:43;;;;;;;19.67;10.83;;;;;;;2.09;82.59;99162.00;4996158;28;20065;-61
2020/12/22 05:33:09;;;;;;;16.23;10.57;;;;;;;2.03;82.46;99154.31;4995588;28;20065;-61
2020/12/22 05:35:36;;;;;;;17.33;10.90;;;;;;;2.06;82.71;99151.84;4995134;28;20042;-60
2020/12/22 05:38:06;;;;;;;14.83;9.97;;;;;;;2.02;83.13;99165.22;4977624;28;20094;-60
2020/12/22 05:40:38;;;;;;;16.30;10.00;;;;;;;2.07;83.14;99162.00;4995926;28;20031;-60
2020/12/22 05:43:04;;;;;;;19.87;12.23;;;;;;;1.94;82.83;99156.59;4995942;28;20105;-60
2020/12/22 05:45:37;;;;;;;16.00;10.70;;;;;;;1.98;83.06;99159.25;4995753;28;20032;-60
2020/12/22 05:48:04;;;;;;;19.93;12.50;;;;;;;2.05;82.68;99167.81;4995202;28;20061;-60
2020/12/22 05:50:31;;;;;;;16.37;10.10;;;;;;;2.01;82.67;99164.38;4995785;28;20407;-60
2020/12/22 05:52:58;;;;;;;18.80;9.93;;;;;;;1.99;82.41;99168.56;4995676;28;20027;-60
2020/12/22 05:55:25;;;;;;;21.20;11.20;;;;;;;2.00;82.75;99169.38;4995041;28;20030;-60
2020/12/22 05:58:06;;;;;;;19.93;10.07;;;;;;;2.11;82.21;99171.34;4995362;28;20069;-59
2020/12/22 06:00:31;;;;;;;21.60;12.37;;;;;;;2.02;82.22;99171.13;4994912;28;20463;-60
2020/12/22 06:03:04;;;;;;;17.00;11.50;;;;;;;2.13;82.21;99164.66;4995209;28;20026;-61
2020/12/22 06:05:35;;;;;;;19.80;11.87;;;;;;;2.19;82.35;99157.22;4978329;28;20088;-60
2020/12/22 06:08:01;;;;;;;18.53;9.90;;;;;;;2.16;82.00;99158.81;4994381;28;20022;-60
2020/12/22 06:10:27;;;;;;;21.40;12.13;;;;;;;2.19;82.36;99156.34;4995066;28;20357;-61
2020/12/22 06:12:57;;;;;;;21.97;13.67;;;;;;;2.35;82.15;99160.91;4995047;28;20034;-61
2020/12/22 06:15:23;;;;;;;18.20;10.80;;;;;;;2.24;81.89;99180.06;4995378;28;20022;-61
2020/12/22 06:17:49;;;;;;;18.70;10.67;;;;;;;2.19;81.81;99166.47;4994283;28;20520;-61
2020/12/22 06:20:20;;;;;;;18.13;10.93;;;;;;;2.21;81.49;99152.16;4995086;28;20255;-61
2020/12/22 06:22:45;;;;;;;19.33;10.43;;;;;;;2.20;81.17;99147.94;4994991;28;20489;-60
2020/12/22 06:25:11;;;;;;;16.30;10.57;;;;;;;2.22;81.59;99141.22;4994838;28;20089;-60
2020/12/22 06:27:37;;;;;;;17.07;10.20;;;;;;;2.27;81.84;99147.25;4995297;28;20076;-61
2020/12/22 06:30:03;;;;;;;19.90;10.53;;;;;;;2.31;81.58;99146.50;4995126;28;20053;-61
2020/12/22 06:32:29;;;;;;;16.60;10.13;;;;;;;2.28;81.99;99170.06;4995318;28;20030;-61
2020/12/22 06:35:27;;;;;;;20.53;11.83;;;;;;;2.24;82.37;99175.03;4995029;28;20033;-60
2020/12/22 06:37:53;;;;;;;18.63;11.90;;;;;;;2.28;82.20;99174.25;4995107;28;20452;-61
2020/12/22 06:40:18;;;;;;;16.80;10.50;;;;;;;2.17;81.53;99155.44;4994553;28;20052;-62
2020/12/22 06:42:46;;;;;;;21.63;11.93;;;;;;;2.19;82.27;99153.81;4994617;28;20034;-61
2020/12/22 06:45:29;;;;;;;20.50;11.47;;;;;;;2.31;82.44;99151.56;4994545;28;20030;-60
2020/12/22 06:47:56;;;;;;;19.50;11.57;;;;;;;2.22;83.74;99164.00;4994041;28;20030;-61
2020/12/22 06:50:39;;;;;;;19.93;12.03;;;;;;;2.23;83.61;99161.50;4994597;28;20387;-61
2020/12/22 06:53:05;;;;;;;21.03;10.70;;;;;;;2.09;83.63;99162.00;4976886;28;20079;-61
2020/12/22 06:55:50;;;;;;;19.70;11.53;;;;;;;2.10;83.74;99173.84;4977714;28;20038;-60
2020/12/22 06:58:35;;;;;;;18.33;10.77;;;;;;;2.17;83.91;99168.09;4995229;28;20455;-59
2020/12/22 07:01:26;;;;;;;19.25;11.88;;;;;;;2.18;84.79;99179.94;4994530;28;20524;-60
2020/12/22 07:03:54;;;;;;;20.33;12.37;;;;;;;2.10;84.57;99173.84;4993488;28;20033;-60
2020/12/22 07:06:44;;;;;;;23.17;13.47;;;;;;;2.20;84.29;99171.56;4992644;28;20483;-60
2020/12/22 07:09:21;;;;;;;25.17;13.03;;;;;;;2.20;84.69;99179.16;4990303;28;20443;-60
2020/12/22 07:11:48;;;;;;;19.80;11.70;;;;;;;2.16;84.75;99177.38;4991973;28;20113;-61
2020/12/22 07:14:15;;;;;;;19.60;12.07;;;;;;;2.14;85.01;99180.69;4994668;28;20034;-60
2020/12/22 07:16:59;;;;;;;19.77;12.67;;;;;;;2.30;84.17;99181.06;4994378;28;20054;-61
2020/12/22 07:19:29;;;;;;;21.60;11.43;;;;;;;2.29;83.93;99186.09;4993912;28;20337;-60
2020/12/22 07:22:15;;;;;;;17.90;11.57;;;;;;;2.33;84.04;99182.81;4992895;28;20038;-60
2020/12/22 07:24:41;;;;;;;24.63;12.67;;;;;;;2.28;84.35;99175.13;4994267;28;20027;-61
2020/12/22 07:27:08;;;;;;;20.03;11.70;;;;;;;2.41;83.45;99180.44;4994602;28;20042;-61
2020/12/22 07:29:40;;;;;;;19.43;11.93;;;;;;;2.46;84.59;99178.88;4997175;28;20030;-61
2020/12/22 07:32:06;;;;;;;20.23;11.80;;;;;;;2.48;84.18;99172.16;4997595;28;20037;-62
2020/12/22 07:34:33;;;;;;;18.97;10.87;;;;;;;2.46;83.94;99176.34;4997245;28;20032;-62
2020/12/22 07:37:09;;;;;;;21.40;10.73;;;;;;;2.35;84.25;99186.22;4996075;28;20033;-62
2020/12/22 07:39:35;;;;;;;;;;;;;;;2.28;84.38;99187.78;4996451;28;20026;-61
2020/12/22 07:42:08;;;;;;;21.50;12.93;;;;;;;2.45;84.34;99183.09;4997198;28;19910;-61
2020/12/22 07:44:34;;;;;;;25.33;15.07;;;;;;;2.41;84.79;99175.41;4980081;28;20031;-62
2020/12/22 07:47:00;;;;;;;22.63;13.17;;;;;;;2.44;85.17;99176.31;4997268;28;20395;-61
2020/12/22 07:49:25;;;;;;;26.30;15.50;;;;;;;2.42;85.35;99183.00;4997273;28;20042;-62
2020/12/22 07:51:51;;;;;;;35.63;20.17;;;;;;;2.47;86.11;99173.84;4979986;28;20089;-60
2020/12/22 07:54:16;;;;;;;26.10;14.50;;;;;;;2.50;85.73;99170.53;4997441;28;20479;-61
2020/12/22 07:56:44;;;;;;;23.83;15.40;;;;;;;2.50;85.47;99171.41;4997773;28;20085;-62
2020/12/22 07:59:11;;;;;;;21.67;12.30;;;;;;;2.48;85.14;99165.44;4997612;28;20092;-60
2020/12/22 08:01:38;;;;;;;21.03;12.07;;;;;;;2.41;85.33;99150.09;4997471;28;20096;-62
2020/12/22 08:04:24;;;;;;;19.33;11.93;;;;;;;2.51;84.77;99151.97;4997363;28;20113;-62
2020/12/22 08:06:54;;;;;;;20.88;13.25;;;;;;;2.56;84.36;99168.13;4997974;28;20038;-62
2020/12/22 08:09:30;;;;;;;16.53;10.37;;;;;;;2.62;85.11;99150.53;4996843;28;20039;-61
2020/12/22 08:11:59;;;;;;;21.47;13.20;;;;;;;2.49;85.49;99168.81;4997673;28;20406;-61
2020/12/22 08:14:26;;;;;;;25.70;12.60;;;;;;;2.53;85.78;99146.16;4997059;28;20035;-62
2020/12/22 08:17:00;;;;;;;21.07;14.00;;;;;;;2.43;86.24;99156.88;4997289;28;20145;-61
2020/12/22 08:19:29;;;;;;;30.58;16.05;;;;;;;2.38;86.51;99162.69;4996811;28;20038;-61
2020/12/22 08:21:56;;;;;;;25.60;14.37;;;;;;;2.29;86.46;99175.97;4979758;28;20112;-61
2020/12/22 08:24:22;;;;;;;24.57;15.30;;;;;;;2.29;86.29;99158.28;4996865;28;20029;-61
2020/12/22 08:26:49;;;;;;;23.70;14.97;;;;;;;2.14;86.02;99178.16;4996420;28;20025;-61
2020/12/22 08:29:17;;;;;;;23.90;14.83;;;;;;;2.23;86.97;99161.50;4996992;28;20030;-62
2020/12/22 08:31:44;;;;;;;23.73;14.47;;;;;;;2.32;86.92;99162.53;4996111;28;20097;-61
2020/12/22 08:34:11;;;;;;;22.90;14.70;;;;;;;2.35;86.91;99153.34;4996271;28;20034;-61
2020/12/22 08:36:37;;;;;;;23.97;14.10;;;;;;;2.33;87.35;99157.53;4996532;28;20030;-61
2020/12/22 08:39:22;;;;;;;25.47;14.43;;;;;;;2.54;87.26;99147.88;4995633;28;20034;-61
2020/12/22 08:41:50;;;;;;;26.67;14.68;;;;;;;2.55;87.21;99154.59;4979183;28;20045;-62
2020/12/22 08:44:17;;;;;;;20.17;13.43;;;;;;;2.71;86.03;99156.66;4996164;28;20049;-61
2020/12/22 08:46:43;;;;;;;21.43;12.70;;;;;;;2.73;85.82;99165.13;4996319;28;20166;-61
2020/12/22 08:49:20;;;;;;;22.13;14.10;;;;;;;2.92;85.72;99148.63;4996528;28;20034;-61
2020/12/22 08:51:46;;;;;;;22.33;13.33;;;;;;;2.99;85.25;99150.44;4996421;28;20054;-61
2020/12/22 08:54:12;;;;;;;19.83;13.60;;;;;;;3.15;84.98;99146.50;4995932;28;20057;-61
2020/12/22 08:56:38;;;;;;;27.63;12.87;;;;;;;3.16;84.08;99145.69;4978376;28;20027;-61
2020/12/22 08:59:07;;;;;;;19.40;11.40;;;;;;;3.17;83.24;99143.22;4996390;28;20030;-61
2020/12/22 09:01:38;;;;;;;14.97;10.17;;;;;;;3.39;83.56;99151.19;4978221;28;20451;-61
2020/12/22 09:04:04;;;;;;;23.93;12.00;;;;;;;3.36;83.36;99159.56;4995535;28;20109;-61
2020/12/22 09:06:45;;;;;;;20.30;12.83;;;;;;;3.55;83.58;99153.16;4995737;28;20026;-61
2020/12/22 09:09:15;;;;;;;24.47;12.47;;;;;;;3.54;81.63;99154.84;4996494;28;20117;-61
2020/12/22 09:11:41;;;;;;;17.20;11.07;;;;;;;3.38;81.59;99150.34;4996069;28;20041;-61
2020/12/22 09:14:11;;;;;;;16.23;11.60;;;;;;;3.47;82.27;99127.69;4996014;28;20027;-61
2020/12/22 09:16:53;;;;;;;18.73;11.60;;;;;;;3.48;82.56;99124.31;4995309;28;20045;-61
2020/12/22 09:19:23;;;;;;;20.67;12.60;;;;;;;3.60;84.32;99137.22;4995809;28;20034;-61
2020/12/22 09:22:00;;;;;;;21.67;12.33;;;;;;;3.77;82.88;99136.63;4995504;28;20419;-61
2020/12/22 09:24:26;;;;;;;21.23;12.87;;;;;;;3.81;81.42;99121.50;4996072;28;20034;-59
2020/12/22 09:27:00;;;;;;;17.80;12.13;;;;;;;3.86;81.62;99122.38;4995979;28;20481;-61
2020/12/22 09:29:27;;;;;;;17.27;10.93;;;;;;;3.91;81.59;99102.16;4995855;28;20026;-61
2020/12/22 09:31:53;;;;;;;14.97;11.23;;;;;;;4.01;82.29;99104.88;4995641;28;20463;-61
2020/12/22 09:34:20;;;;;;;21.67;14.67;;;;;;;4.20;80.81;99105.16;4995842;28;20105;-61
2020/12/22 09:36:56;;;;;;;25.63;14.83;;;;;;;4.21;79.86;99110.22;4995550;28;20525;-62
2020/12/22 09:39:23;;;;;;;27.33;16.23;;;;;;;4.10;80.67;99094.88;4994965;28;20030;-62
2020/12/22 09:41:49;;;;;;;18.03;12.57;;;;;;;3.98;81.17;99091.31;4995522;28;20121;-62
2020/12/22 09:44:14;;;;;;;19.03;11.83;;;;;;;4.03;81.29;99082.91;4995193;28;20026;-62
2020/12/22 09:46:40;;;;;;;16.83;10.37;;;;;;;4.04;81.31;99066.88;4995537;28;20022;-62
2020/12/22 09:49:05;;;;;;;19.67;12.60;;;;;;;4.27;81.37;99077.34;4977882;28;20364;-61
2020/12/22 09:51:31;;;;;;;16.80;10.73;;;;;;;4.27;81.62;99074.78;4984457;28;20034;-62
2020/12/22 09:53:57;;;;;;;19.83;11.53;;;;;;;4.21;81.18;99084.84;4994573;28;20101;-62
2020/12/22 09:56:22;;;;;;;21.03;12.90;;;;;;;4.23;80.88;99083.19;4968497;28;20533;-62
2020/12/22 09:58:48;;;;;;;20.53;12.27;;;;;;;4.26;81.28;99068.00;4989354;28;20050;-63
2020/12/22 10:01:13;;;;;;;18.10;11.23;;;;;;;4.44;81.48;99057.25;4994342;28;20030;-62
2020/12/22 10:03:39;;;;;;;18.60;11.60;;;;;;;4.46;81.41;99053.00;4994235;28;20032;-62
2020/12/22 10:06:04;;;;;;;19.03;12.37;;;;;;;4.39;80.43;99039.41;4977592;28;20352;-63
2020/12/22 10:08:29;;;;;;;15.83;10.20;;;;;;;4.46;79.87;99043.72;4978000;28;20061;-63
2020/12/22 10:10:55;;;;;;;16.80;10.73;;;;;;;4.45;80.00;99052.19;4994803;28;20113;-63
2020/12/22 10:13:20;;;;;;;17.80;11.77;;;;;;;4.70;79.47;99042.31;4994661;28;20040;-63
2020/12/22 10:15:46;;;;;;;17.03;11.53;;;;;;;5.01;79.60;99037.53;4994651;28;20439;-63
2020/12/22 10:18:12;;;;;;;15.77;10.30;;;;;;;5.00;79.58;99024.84;4994819;28;20022;-63
2020/12/22 10:20:37;;;;;;;17.57;11.23;;;;;;;4.94;78.67;99040.88;4994466;28;20080;-63
2020/12/22 10:23:03;;;;;;;15.80;10.03;;;;;;;5.22;78.18;99028.44;4994737;28;20022;-63
2020/12/22 10:25:29;;;;;;;15.73;10.20;;;;;;;5.04;76.76;99021.50;4994687;28;20038;-63
2020/12/22 10:27:55;;;;;;;16.60;10.77;;;;;;;5.14;77.21;99022.41;4993042;28;20034;-63
2020/12/22 10:30:20;;;;;;;16.17;10.57;;;;;;;5.21;78.33;99017.41;4994878;28;20121;-63
2020/12/22 10:32:45;;;;;;;16.10;9.87;;;;;;;5.34;77.56;99016.66;4994674;28;20067;-63
2020/12/22 10:35:11;;;;;;;18.33;12.40;;;;;;;5.33;76.76;99022.59;4994901;28;20431;-62
2020/12/22 10:37:36;;;;;;;16.73;10.97;;;;;;;5.48;75.55;99012.53;4994992;28;20474;-62
2020/12/22 10:40:03;;;;;;;17.63;11.53;;;;;;;5.53;76.66;99015.94;4993172;28;20038;-61
2020/12/22 10:42:28;;;;;;;19.33;10.97;;;;;;;5.65;76.25;99016.88;4994751;28;20034;-62
2020/12/22 10:44:53;;;;;;;13.37;9.93;;;;;;;5.64;76.63;99015.19;4994475;28;20352;-63
2020/12/22 10:47:19;;;;;;;14.10;10.07;;;;;;;5.66;75.91;99011.81;4994693;28;20031;-62
2020/12/22 10:49:44;;;;;;;17.13;10.63;;;;;;;5.61;75.93;99005.81;4994686;28;20191;-62
2020/12/22 10:52:10;;;;;;;15.73;9.90;;;;;;;5.91;75.02;99006.06;4977033;28;20034;-62
2020/12/22 10:54:35;;;;;;;16.10;10.10;;;;;;;5.89;74.85;99006.91;4994458;28;20034;-63
2020/12/22 10:57:00;;;;;;;16.80;10.57;;;;;;;5.90;75.04;99014.53;4990726;28;20436;-62
2020/12/22 10:59:26;;;;;;;16.73;11.27;;;;;;;5.87;75.23;99013.66;4994933;28;20399;-63
2020/12/22 11:01:51;;;;;;;16.07;10.67;;;;;;;5.72;75.82;98998.28;4994655;28;20030;-62
2020/12/22 11:04:18;;;;;;;17.03;10.20;;;;;;;5.65;76.12;99001.59;4996252;28;20351;-63
2020/12/22 11:06:53;;;;;;;17.60;11.80;;;;;;;5.46;76.57;99001.50;4981209;28;20487;-63
2020/12/22 11:09:18;;;;;;;17.38;10.93;;;;;;;5.50;77.40;98985.44;4998839;28;20030;-63
2020/12/22 11:11:46;;;;;;;17.50;11.17;;;;;;;5.46;76.98;98991.34;4998710;28;20109;-62
2020/12/22 11:14:12;;;;;;;19.67;11.90;;;;;;;5.42;77.99;98989.63;4997228;28;20101;-62
2020/12/22 11:16:37;;;;;;;16.03;10.83;;;;;;;5.32;78.76;98982.75;4997868;28;20069;-61
2020/12/22 11:19:03;;;;;;;17.33;11.83;;;;;;;5.19;78.74;99006.38;4977857;28;20027;-62
2020/12/22 11:21:28;;;;;;;16.57;10.67;;;;;;;5.01;79.38;98980.78;4991469;28;20038;-61
2020/12/22 11:23:54;;;;;;;20.23;11.63;;;;;;;5.10;79.16;98990.19;4994510;28;20041;-62
2020/12/22 11:26:21;;;;;;;17.00;10.20;;;;;;;5.32;78.77;98999.69;4971755;28;20034;-62
2020/12/22 11:28:47;;;;;;;17.80;11.80;;;;;;;5.42;78.19;98992.16;4988080;28;20096;-61
2020/12/22 11:31:12;;;;;;;21.77;11.93;;;;;;;5.42;78.58;98992.16;4988247;28;20477;-61